If you wish to contribute or participate in the discussions about articles you are invited to join SKYbrary as a registered user

 Actions

Aktion National Airport

From SKYbrary Wiki

LGPZ
Airport
ICAO: LGPZ – IATA: PVK
Summary
Name Aktion National Airport
Region Europe
Territory Greece GR.gif
Location Preveza, Epirus
Serving Preveza
Elevation 3.353 m <br />11 ft3.353 m <br />
Coordinates 38° 55' 25.86" N, 20° 46' 6.31" E
Runways
Designator Length Width Surface ROPS
07L/25R 2871 m9,419.291 ft <br /> 45 m147.638 ft <br /> ASP /


METAR
Observation LGPZ 250120Z AUTO 09015G25KT //// // ////// 19/09 Q1021 RE//
Station Aktion Airport
Date/Time 25 October 2021 01:20:00
Wind direction 90°
Wind speed 15 kts
Lowest cloud amount n/a
Temperature 19°C
Dew point 9°C
Humidity 52%
QNH 1021 hPa
Weather condition n/a

Aktion National Airport is a civil/military airport serving Preveza and Lefkada in Greece.

Climatology

Warm mediterranean climate (Köppen climate classification Csa)

Maps

Terrain

Loading map...

Airport Layout

Loading map...


Accidents & Serious Incidents at or in vicinity of LGPZ

None on SKYbrary